KANW/ANW METAR and TAF weather

Enter ICAO airport designator
Station Type Date Time Source
KANW METAR 2019/06/17 13:35 UTC NOAA

KANW 171335Z AUTO 29006KT 10SM CLR 18/15 A3002 RMK AO2 T01820147


Station Type Date Time Source
KANW Decoded METAR 2019/06/17 13:35 UTC NOAA

Ainsworth Municipal, NE, United States (KANW) 42-35N 100-00W
Jun 17, 2019 - 09:35 AM EDT / 2019.06.17 1335 UTC
Wind: from the WNW (290 degrees) at 7 MPH (6 KT):0
Visibility: 10 mile(s):0
Sky conditions: clear
Temperature: 64.8 F (18.2 C)
Dew Point: 58.5 F (14.7 C)
Relative Humidity: 80%
Pressure (altimeter): 30.02 in. Hg (1016 hPa)
ob: KANW 171335Z AUTO 29006KT 10SM CLR 18/15 A3002 RMK AO2 T01820147
cycle: 13

Station Type Date Time Source
KANW TAF UTC NOAA

Error!

Example: see airport list